sensor_id;sensor_type;location;lat;lon;timestamp;temperature;humidity
29765;DHT22;16667;-33.884;151.182;2022-08-14T00:02:30;14.20;99.90
29765;DHT22;16667;-33.884;151.182;2022-08-14T00:05:00;14.30;99.90
29765;DHT22;16667;-33.884;151.182;2022-08-14T00:07:32;14.40;99.90
29765;DHT22;16667;-33.884;151.182;2022-08-14T00:10:08;14.40;99.90
29765;DHT22;16667;-33.884;151.182;2022-08-14T00:12:44;14.30;99.90
29765;DHT22;16667;-33.884;151.182;2022-08-14T00:15:19;14.30;99.90
29765;DHT22;16667;-33.884;151.182;2022-08-14T00:17:52;14.60;99.90
29765;DHT22;16667;-33.884;151.182;2022-08-14T00:20:28;14.60;99.90
29765;DHT22;16667;-33.884;151.182;2022-08-14T00:23:00;14.60;99.90
29765;DHT22;16667;-33.884;151.182;2022-08-14T00:25:31;14.60;99.90
29765;DHT22;16667;-33.884;151.182;2022-08-14T00:28:02;14.50;99.90
29765;DHT22;16667;-33.884;151.182;2022-08-14T00:30:35;14.50;99.90
29765;DHT22;16667;-33.884;151.182;2022-08-14T00:33:06;14.60;99.90
29765;DHT22;16667;-33.884;151.182;2022-08-14T00:35:37;14.70;99.90
29765;DHT22;16667;-33.884;151.182;2022-08-14T00:38:08;14.80;99.90
29765;DHT22;16667;-33.884;151.182;2022-08-14T00:40:39;14.90;99.90
29765;DHT22;16667;-33.884;151.182;2022-08-14T00:43:10;15.00;99.90
29765;DHT22;16667;-33.884;151.182;2022-08-14T00:45:42;15.10;99.90
29765;DHT22;16667;-33.884;151.182;2022-08-14T00:48:15;15.10;99.90
29765;DHT22;16667;-33.884;151.182;2022-08-14T00:50:46;15.20;99.90
29765;DHT22;16667;-33.884;151.182;2022-08-14T00:53:17;15.30;99.90
29765;DHT22;16667;-33.884;151.182;2022-08-14T00:55:50;15.40;99.90
29765;DHT22;16667;-33.884;151.182;2022-08-14T00:58:23;15.50;99.90
29765;DHT22;16667;-33.884;151.182;2022-08-14T01:01:05;15.60;99.90
29765;DHT22;16667;-33.884;151.182;2022-08-14T01:03:39;15.50;99.90
29765;DHT22;16667;-33.884;151.182;2022-08-14T01:06:11;15.60;99.90
29765;DHT22;16667;-33.884;151.182;2022-08-14T01:08:44;15.60;99.90
29765;DHT22;16667;-33.884;151.182;2022-08-14T01:11:16;15.50;99.90
29765;DHT22;16667;-33.884;151.182;2022-08-14T01:13:52;15.50;99.90
29765;DHT22;16667;-33.884;151.182;2022-08-14T01:16:29;15.40;99.90
29765;DHT22;16667;-33.884;151.182;2022-08-14T01:19:00;15.40;99.90
29765;DHT22;16667;-33.884;151.182;2022-08-14T01:21:48;15.30;99.90
29765;DHT22;16667;-33.884;151.182;2022-08-14T01:24:20;15.40;99.90
29765;DHT22;16667;-33.884;151.182;2022-08-14T01:26:51;15.50;99.90
29765;DHT22;16667;-33.884;151.182;2022-08-14T01:29:22;15.50;99.90
29765;DHT22;16667;-33.884;151.182;2022-08-14T01:31:56;15.60;99.90
29765;DHT22;16667;-33.884;151.182;2022-08-14T01:34:31;15.60;99.90
29765;DHT22;16667;-33.884;151.182;2022-08-14T01:37:04;15.60;99.90
29765;DHT22;16667;-33.884;151.182;2022-08-14T01:39:35;15.70;99.90
29765;DHT22;16667;-33.884;151.182;2022-08-14T01:42:06;15.70;99.90
29765;DHT22;16667;-33.884;151.182;2022-08-14T01:44:37;15.60;99.90
29765;DHT22;16667;-33.884;151.182;2022-08-14T01:47:08;15.60;99.90
29765;DHT22;16667;-33.884;151.182;2022-08-14T01:49:40;15.50;99.90
29765;DHT22;16667;-33.884;151.182;2022-08-14T01:52:13;15.60;99.90
29765;DHT22;16667;-33.884;151.182;2022-08-14T01:54:44;15.60;99.90
29765;DHT22;16667;-33.884;151.182;2022-08-14T01:57:15;15.60;99.90
29765;DHT22;16667;-33.884;151.182;2022-08-14T01:59:46;15.60;99.90
29765;DHT22;16667;-33.884;151.182;2022-08-14T02:02:17;15.60;99.90
29765;DHT22;16667;-33.884;151.182;2022-08-14T02:04:49;15.70;99.90
29765;DHT22;16667;-33.884;151.182;2022-08-14T02:07:22;15.70;99.90
29765;DHT22;16667;-33.884;151.182;2022-08-14T02:09:53;15.80;99.90
29765;DHT22;16667;-33.884;151.182;2022-08-14T02:12:26;15.80;99.90
29765;DHT22;16667;-33.884;151.182;2022-08-14T02:15:00;15.80;99.90
29765;DHT22;16667;-33.884;151.182;2022-08-14T02:17:33;15.80;99.90
29765;DHT22;16667;-33.884;151.182;2022-08-14T02:20:05;15.80;99.90
29765;DHT22;16667;-33.884;151.182;2022-08-14T02:22:38;15.90;99.90
29765;DHT22;16667;-33.884;151.182;2022-08-14T02:25:10;16.00;99.90
29765;DHT22;16667;-33.884;151.182;2022-08-14T02:27:42;16.00;99.90
29765;DHT22;16667;-33.884;151.182;2022-08-14T02:30:13;16.10;99.90
29765;DHT22;16667;-33.884;151.182;2022-08-14T02:32:45;16.00;99.90
29765;DHT22;16667;-33.884;151.182;2022-08-14T02:35:17;16.10;99.90
29765;DHT22;16667;-33.884;151.182;2022-08-14T02:37:50;16.20;99.90
29765;DHT22;16667;-33.884;151.182;2022-08-14T02:40:23;16.40;99.90
29765;DHT22;16667;-33.884;151.182;2022-08-14T02:42:59;16.30;99.90
29765;DHT22;16667;-33.884;151.182;2022-08-14T02:45:30;16.30;99.90
29765;DHT22;16667;-33.884;151.182;2022-08-14T02:48:01;16.30;99.90
29765;DHT22;16667;-33.884;151.182;2022-08-14T02:50:34;16.40;99.90
29765;DHT22;16667;-33.884;151.182;2022-08-14T02:53:07;16.40;99.90
29765;DHT22;16667;-33.884;151.182;2022-08-14T02:55:38;16.50;99.90
29765;DHT22;16667;-33.884;151.182;2022-08-14T02:58:13;16.40;99.90
29765;DHT22;16667;-33.884;151.182;2022-08-14T03:00:44;16.30;99.90
29765;DHT22;16667;-33.884;151.182;2022-08-14T03:03:15;16.40;99.90
29765;DHT22;16667;-33.884;151.182;2022-08-14T03:05:50;16.60;99.90
29765;DHT22;16667;-33.884;151.182;2022-08-14T03:08:23;16.80;99.90
29765;DHT22;16667;-33.884;151.182;2022-08-14T03:10:58;17.00;99.90
29765;DHT22;16667;-33.884;151.182;2022-08-14T03:13:34;17.10;99.90
29765;DHT22;16667;-33.884;151.182;2022-08-14T03:16:09;17.30;99.90
29765;DHT22;16667;-33.884;151.182;2022-08-14T03:18:42;17.50;99.90
29765;DHT22;16667;-33.884;151.182;2022-08-14T03:21:15;17.40;99.90
29765;DHT22;16667;-33.884;151.182;2022-08-14T03:23:50;17.40;99.90
29765;DHT22;16667;-33.884;151.182;2022-08-14T03:26:26;17.50;99.90
29765;DHT22;16667;-33.884;151.182;2022-08-14T03:28:57;17.40;99.90
29765;DHT22;16667;-33.884;151.182;2022-08-14T03:31:29;17.60;99.90
29765;DHT22;16667;-33.884;151.182;2022-08-14T03:34:00;17.60;99.90
29765;DHT22;16667;-33.884;151.182;2022-08-14T03:36:31;17.50;99.90
29765;DHT22;16667;-33.884;151.182;2022-08-14T03:39:05;17.30;99.90
29765;DHT22;16667;-33.884;151.182;2022-08-14T03:41:36;17.10;99.90
29765;DHT22;16667;-33.884;151.182;2022-08-14T03:44:07;17.10;99.90
29765;DHT22;16667;-33.884;151.182;2022-08-14T03:46:38;17.20;99.90
29765;DHT22;16667;-33.884;151.182;2022-08-14T03:49:09;17.10;99.90
29765;DHT22;16667;-33.884;151.182;2022-08-14T03:51:40;17.00;99.90
29765;DHT22;16667;-33.884;151.182;2022-08-14T03:54:14;17.00;99.90
29765;DHT22;16667;-33.884;151.182;2022-08-14T03:56:48;16.80;99.90
29765;DHT22;16667;-33.884;151.182;2022-08-14T03:59:18;16.90;99.90
29765;DHT22;16667;-33.884;151.182;2022-08-14T04:01:49;17.20;99.90
29765;DHT22;16667;-33.884;151.182;2022-08-14T04:04:22;17.50;99.90
29765;DHT22;16667;-33.884;151.182;2022-08-14T04:06:53;17.60;99.90
29765;DHT22;16667;-33.884;151.182;2022-08-14T04:09:26;17.70;99.90
29765;DHT22;16667;-33.884;151.182;2022-08-14T04:11:57;17.60;99.90
29765;DHT22;16667;-33.884;151.182;2022-08-14T04:14:28;17.70;99.90
29765;DHT22;16667;-33.884;151.182;2022-08-14T04:16:59;17.90;99.90
29765;DHT22;16667;-33.884;151.182;2022-08-14T04:19:30;18.00;99.90
29765;DHT22;16667;-33.884;151.182;2022-08-14T04:22:01;17.90;99.90
29765;DHT22;16667;-33.884;151.182;2022-08-14T04:24:38;18.00;99.90
29765;DHT22;16667;-33.884;151.182;2022-08-14T04:27:09;17.90;99.90
29765;DHT22;16667;-33.884;151.182;2022-08-14T04:29:42;17.60;99.90
29765;DHT22;16667;-33.884;151.182;2022-08-14T04:32:13;17.30;99.90
29765;DHT22;16667;-33.884;151.182;2022-08-14T04:34:44;17.20;99.90
29765;DHT22;16667;-33.884;151.182;2022-08-14T04:37:14;17.60;99.90
29765;DHT22;16667;-33.884;151.182;2022-08-14T04:40:04;17.90;99.90
29765;DHT22;16667;-33.884;151.182;2022-08-14T04:42:50;18.20;99.90
29765;DHT22;16667;-33.884;151.182;2022-08-14T04:45:37;18.70;99.90
29765;DHT22;16667;-33.884;151.182;2022-08-14T04:48:12;18.90;99.90
29765;DHT22;16667;-33.884;151.182;2022-08-14T04:50:42;18.80;99.90
29765;DHT22;16667;-33.884;151.182;2022-08-14T04:53:17;18.30;99.90
29765;DHT22;16667;-33.884;151.182;2022-08-14T04:55:50;18.20;99.90
29765;DHT22;16667;-33.884;151.182;2022-08-14T04:58:22;18.10;99.90
29765;DHT22;16667;-33.884;151.182;2022-08-14T05:00:55;17.70;99.90
29765;DHT22;16667;-33.884;151.182;2022-08-14T05:03:27;17.30;99.90
29765;DHT22;16667;-33.884;151.182;2022-08-14T05:05:59;18.10;99.90
29765;DHT22;16667;-33.884;151.182;2022-08-14T05:08:33;18.70;99.90
29765;DHT22;16667;-33.884;151.182;2022-08-14T05:11:07;18.70;99.90
29765;DHT22;16667;-33.884;151.182;2022-08-14T05:13:38;19.60;99.90
29765;DHT22;16667;-33.884;151.182;2022-08-14T05:16:13;18.70;99.90
29765;DHT22;16667;-33.884;151.182;2022-08-14T05:18:43;17.90;99.90
29765;DHT22;16667;-33.884;151.182;2022-08-14T05:21:16;17.40;99.90
29765;DHT22;16667;-33.884;151.182;2022-08-14T05:23:47;17.20;99.90
29765;DHT22;16667;-33.884;151.182;2022-08-14T05:26:21;17.30;99.90
29765;DHT22;16667;-33.884;151.182;2022-08-14T05:28:52;19.40;99.90
29765;DHT22;16667;-33.884;151.182;2022-08-14T05:31:23;21.00;99.90
29765;DHT22;16667;-33.884;151.182;2022-08-14T05:33:54;21.80;97.40
29765;DHT22;16667;-33.884;151.182;2022-08-14T05:36:27;22.30;97.20
29765;DHT22;16667;-33.884;151.182;2022-08-14T05:39:00;22.60;95.70
29765;DHT22;16667;-33.884;151.182;2022-08-14T05:41:32;23.70;93.60
29765;DHT22;16667;-33.884;151.182;2022-08-14T05:44:03;23.50;94.50
29765;DHT22;16667;-33.884;151.182;2022-08-14T05:46:34;24.20;93.80
29765;DHT22;16667;-33.884;151.182;2022-08-14T05:49:05;24.00;92.30
29765;DHT22;16667;-33.884;151.182;2022-08-14T05:51:36;23.50;90.30
29765;DHT22;16667;-33.884;151.182;2022-08-14T05:54:08;24.00;91.00
29765;DHT22;16667;-33.884;151.182;2022-08-14T05:56:40;24.90;89.60
29765;DHT22;16667;-33.884;151.182;2022-08-14T05:59:11;24.40;88.60
29765;DHT22;16667;-33.884;151.182;2022-08-14T06:01:42;24.20;87.20
29765;DHT22;16667;-33.884;151.182;2022-08-14T06:04:16;23.20;86.60
29765;DHT22;16667;-33.884;151.182;2022-08-14T06:06:46;22.50;89.30
29765;DHT22;16667;-33.884;151.182;2022-08-14T06:09:17;22.80;90.60
29765;DHT22;16667;-33.884;151.182;2022-08-14T06:11:52;23.00;91.20
29765;DHT22;16667;-33.884;151.182;2022-08-14T06:14:26;22.60;90.00
29765;DHT22;16667;-33.884;151.182;2022-08-14T06:16:56;21.40;89.70
29765;DHT22;16667;-33.884;151.182;2022-08-14T06:19:27;19.70;93.10
29765;DHT22;16667;-33.884;151.182;2022-08-14T06:21:58;19.30;95.20
29765;DHT22;16667;-33.884;151.182;2022-08-14T06:24:29;18.70;98.70
29765;DHT22;16667;-33.884;151.182;2022-08-14T06:27:07;18.10;99.20
29765;DHT22;16667;-33.884;151.182;2022-08-14T06:29:38;17.40;99.90
29765;DHT22;16667;-33.884;151.182;2022-08-14T06:32:09;17.00;99.90
29765;DHT22;16667;-33.884;151.182;2022-08-14T06:34:41;16.40;99.90
29765;DHT22;16667;-33.884;151.182;2022-08-14T06:37:11;16.60;99.90
29765;DHT22;16667;-33.884;151.182;2022-08-14T06:39:45;16.50;99.90
29765;DHT22;16667;-33.884;151.182;2022-08-14T06:42:18;16.40;99.90
29765;DHT22;16667;-33.884;151.182;2022-08-14T06:44:49;16.30;99.90
29765;DHT22;16667;-33.884;151.182;2022-08-14T06:47:20;16.20;99.90
29765;DHT22;16667;-33.884;151.182;2022-08-14T06:49:50;16.10;99.90
29765;DHT22;16667;-33.884;151.182;2022-08-14T06:52:24;16.10;99.90
29765;DHT22;16667;-33.884;151.182;2022-08-14T06:54:55;16.10;99.90
29765;DHT22;16667;-33.884;151.182;2022-08-14T06:57:34;16.00;99.90
29765;DHT22;16667;-33.884;151.182;2022-08-14T07:00:07;15.90;99.90
29765;DHT22;16667;-33.884;151.182;2022-08-14T07:02:39;15.90;99.90
29765;DHT22;16667;-33.884;151.182;2022-08-14T07:05:38;15.90;99.90
29765;DHT22;16667;-33.884;151.182;2022-08-14T07:08:15;15.70;99.90
29765;DHT22;16667;-33.884;151.182;2022-08-14T07:10:47;15.70;99.90
29765;DHT22;16667;-33.884;151.182;2022-08-14T07:13:22;15.60;99.90
29765;DHT22;16667;-33.884;151.182;2022-08-14T07:15:58;15.50;99.90
29765;DHT22;16667;-33.884;151.182;2022-08-14T07:18:30;15.50;99.90
29765;DHT22;16667;-33.884;151.182;2022-08-14T07:21:04;15.40;99.90
29765;DHT22;16667;-33.884;151.182;2022-08-14T07:23:36;15.40;99.90
29765;DHT22;16667;-33.884;151.182;2022-08-14T07:26:07;15.30;99.90
29765;DHT22;16667;-33.884;151.182;2022-08-14T07:28:41;15.20;99.90
29765;DHT22;16667;-33.884;151.182;2022-08-14T07:31:12;15.20;99.90
29765;DHT22;16667;-33.884;151.182;2022-08-14T07:33:44;15.10;99.90
29765;DHT22;16667;-33.884;151.182;2022-08-14T07:36:16;15.00;99.90
29765;DHT22;16667;-33.884;151.182;2022-08-14T07:38:50;15.00;99.90
29765;DHT22;16667;-33.884;151.182;2022-08-14T07:41:21;14.90;99.90
29765;DHT22;16667;-33.884;151.182;2022-08-14T07:43:53;14.90;99.90
29765;DHT22;16667;-33.884;151.182;2022-08-14T07:46:24;14.80;99.90
29765;DHT22;16667;-33.884;151.182;2022-08-14T07:48:55;14.80;99.90
29765;DHT22;16667;-33.884;151.182;2022-08-14T07:51:26;14.70;99.90
29765;DHT22;16667;-33.884;151.182;2022-08-14T07:53:57;14.60;99.90
29765;DHT22;16667;-33.884;151.182;2022-08-14T07:56:31;14.60;99.90
29765;DHT22;16667;-33.884;151.182;2022-08-14T07:59:04;14.60;99.90
29765;DHT22;16667;-33.884;151.182;2022-08-14T08:01:35;14.60;99.90
29765;DHT22;16667;-33.884;151.182;2022-08-14T08:04:07;14.60;99.90
29765;DHT22;16667;-33.884;151.182;2022-08-14T08:06:38;14.50;99.90
29765;DHT22;16667;-33.884;151.182;2022-08-14T08:09:10;14.40;99.90
29765;DHT22;16667;-33.884;151.182;2022-08-14T08:11:41;14.40;99.90
29765;DHT22;16667;-33.884;151.182;2022-08-14T08:14:15;14.30;99.90
29765;DHT22;16667;-33.884;151.182;2022-08-14T08:16:46;14.30;99.90
29765;DHT22;16667;-33.884;151.182;2022-08-14T08:19:18;14.30;99.90
29765;DHT22;16667;-33.884;151.182;2022-08-14T08:21:48;14.20;99.90
29765;DHT22;16667;-33.884;151.182;2022-08-14T08:24:21;14.20;99.90
29765;DHT22;16667;-33.884;151.182;2022-08-14T08:26:52;14.20;99.90
29765;DHT22;16667;-33.884;151.182;2022-08-14T08:29:24;14.10;99.90
29765;DHT22;16667;-33.884;151.182;2022-08-14T08:31:55;14.00;99.90
29765;DHT22;16667;-33.884;151.182;2022-08-14T08:34:27;14.00;99.90
29765;DHT22;16667;-33.884;151.182;2022-08-14T08:36:59;13.90;99.90
29765;DHT22;16667;-33.884;151.182;2022-08-14T08:39:30;13.90;99.90
29765;DHT22;16667;-33.884;151.182;2022-08-14T08:42:12;13.80;99.90
29765;DHT22;16667;-33.884;151.182;2022-08-14T08:44:59;13.70;99.90
29765;DHT22;16667;-33.884;151.182;2022-08-14T08:47:40;13.90;99.90
29765;DHT22;16667;-33.884;151.182;2022-08-14T08:50:22;13.70;99.90
29765;DHT22;16667;-33.884;151.182;2022-08-14T08:52:58;13.70;99.90
29765;DHT22;16667;-33.884;151.182;2022-08-14T08:55:31;13.60;99.90
29765;DHT22;16667;-33.884;151.182;2022-08-14T08:58:04;13.60;99.90
29765;DHT22;16667;-33.884;151.182;2022-08-14T09:00:38;13.60;99.90
29765;DHT22;16667;-33.884;151.182;2022-08-14T09:03:11;13.60;99.90
29765;DHT22;16667;-33.884;151.182;2022-08-14T09:05:51;13.60;99.90
29765;DHT22;16667;-33.884;151.182;2022-08-14T09:08:23;13.60;99.90
29765;DHT22;16667;-33.884;151.182;2022-08-14T09:10:55;13.60;99.90
29765;DHT22;16667;-33.884;151.182;2022-08-14T09:13:26;13.50;99.90
29765;DHT22;16667;-33.884;151.182;2022-08-14T09:15:58;13.40;99.90
29765;DHT22;16667;-33.884;151.182;2022-08-14T09:18:31;13.40;99.90
29765;DHT22;16667;-33.884;151.182;2022-08-14T09:21:02;13.40;99.90
29765;DHT22;16667;-33.884;151.182;2022-08-14T09:23:36;13.30;99.90
29765;DHT22;16667;-33.884;151.182;2022-08-14T09:26:08;13.30;99.90
29765;DHT22;16667;-33.884;151.182;2022-08-14T09:28:38;13.40;99.90
29765;DHT22;16667;-33.884;151.182;2022-08-14T09:31:11;13.40;99.90
29765;DHT22;16667;-33.884;151.182;2022-08-14T09:34:07;13.40;99.90
29765;DHT22;16667;-33.884;151.182;2022-08-14T09:36:58;13.40;99.90
29765;DHT22;16667;-33.884;151.182;2022-08-14T09:39:45;13.50;99.90
29765;DHT22;16667;-33.884;151.182;2022-08-14T09:42:48;13.40;99.90
29765;DHT22;16667;-33.884;151.182;2022-08-14T09:45:27;13.40;99.90
29765;DHT22;16667;-33.884;151.182;2022-08-14T09:48:11;13.20;99.90
29765;DHT22;16667;-33.884;151.182;2022-08-14T09:50:46;13.30;99.90
29765;DHT22;16667;-33.884;151.182;2022-08-14T09:53:30;13.20;99.90
29765;DHT22;16667;-33.884;151.182;2022-08-14T09:56:06;13.10;99.90
29765;DHT22;16667;-33.884;151.182;2022-08-14T09:58:39;13.10;99.90
29765;DHT22;16667;-33.884;151.182;2022-08-14T10:01:12;13.10;99.90
29765;DHT22;16667;-33.884;151.182;2022-08-14T10:03:51;13.10;99.90
29765;DHT22;16667;-33.884;151.182;2022-08-14T10:06:23;13.10;99.90
29765;DHT22;16667;-33.884;151.182;2022-08-14T10:09:03;13.00;99.90
29765;DHT22;16667;-33.884;151.182;2022-08-14T10:11:35;13.00;99.90
29765;DHT22;16667;-33.884;151.182;2022-08-14T10:14:13;13.00;99.90
29765;DHT22;16667;-33.884;151.182;2022-08-14T10:16:47;12.50;99.90
29765;DHT22;16667;-33.884;151.182;2022-08-14T10:19:22;12.90;99.90
29765;DHT22;16667;-33.884;151.182;2022-08-14T10:21:59;12.90;99.90
29765;DHT22;16667;-33.884;151.182;2022-08-14T10:24:41;12.90;99.90
29765;DHT22;16667;-33.884;151.182;2022-08-14T10:27:17;12.80;99.90
29765;DHT22;16667;-33.884;151.182;2022-08-14T10:29:50;13.10;99.90
29765;DHT22;16667;-33.884;151.182;2022-08-14T10:32:22;12.80;99.90
29765;DHT22;16667;-33.884;151.182;2022-08-14T10:35:04;12.80;99.90
29765;DHT22;16667;-33.884;151.182;2022-08-14T10:37:39;12.70;99.90
29765;DHT22;16667;-33.884;151.182;2022-08-14T10:40:10;12.70;99.90
29765;DHT22;16667;-33.884;151.182;2022-08-14T10:42:42;12.70;99.90
29765;DHT22;16667;-33.884;151.182;2022-08-14T10:45:21;12.70;99.90
29765;DHT22;16667;-33.884;151.182;2022-08-14T10:47:52;12.60;99.90
29765;DHT22;16667;-33.884;151.182;2022-08-14T10:50:32;12.60;99.90
29765;DHT22;16667;-33.884;151.182;2022-08-14T10:53:04;12.50;99.90
29765;DHT22;16667;-33.884;151.182;2022-08-14T10:55:35;12.50;99.90
29765;DHT22;16667;-33.884;151.182;2022-08-14T10:58:08;12.50;99.90
29765;DHT22;16667;-33.884;151.182;2022-08-14T11:00:40;12.40;99.90
29765;DHT22;16667;-33.884;151.182;2022-08-14T11:03:11;12.40;99.90
29765;DHT22;16667;-33.884;151.182;2022-08-14T11:05:47;12.40;99.90
29765;DHT22;16667;-33.884;151.182;2022-08-14T11:08:31;12.40;99.90
29765;DHT22;16667;-33.884;151.182;2022-08-14T11:11:04;12.40;99.90
29765;DHT22;16667;-33.884;151.182;2022-08-14T11:13:35;12.40;99.90
29765;DHT22;16667;-33.884;151.182;2022-08-14T11:16:06;12.40;99.90
29765;DHT22;16667;-33.884;151.182;2022-08-14T11:18:40;12.40;99.90
29765;DHT22;16667;-33.884;151.182;2022-08-14T11:21:18;12.40;99.90
29765;DHT22;16667;-33.884;151.182;2022-08-14T11:23:50;12.40;99.90
29765;DHT22;16667;-33.884;151.182;2022-08-14T11:26:21;12.40;99.90
29765;DHT22;16667;-33.884;151.182;2022-08-14T11:28:52;12.30;99.90
29765;DHT22;16667;-33.884;151.182;2022-08-14T11:31:24;12.30;99.90
29765;DHT22;16667;-33.884;151.182;2022-08-14T11:33:58;12.30;99.90
29765;DHT22;16667;-33.884;151.182;2022-08-14T11:36:31;12.20;99.90
29765;DHT22;16667;-33.884;151.182;2022-08-14T11:39:04;12.20;99.90
29765;DHT22;16667;-33.884;151.182;2022-08-14T11:41:35;12.20;99.90
29765;DHT22;16667;-33.884;151.182;2022-08-14T11:44:08;12.20;99.90
29765;DHT22;16667;-33.884;151.182;2022-08-14T11:46:40;12.20;99.90
29765;DHT22;16667;-33.884;151.182;2022-08-14T11:49:14;12.20;99.90
29765;DHT22;16667;-33.884;151.182;2022-08-14T11:51:56;12.20;99.90
29765;DHT22;16667;-33.884;151.182;2022-08-14T11:54:27;12.20;99.90
29765;DHT22;16667;-33.884;151.182;2022-08-14T11:56:58;12.20;99.90
29765;DHT22;16667;-33.884;151.182;2022-08-14T11:59:31;12.20;99.90
29765;DHT22;16667;-33.884;151.182;2022-08-14T12:02:12;12.30;99.90
29765;DHT22;16667;-33.884;151.182;2022-08-14T12:04:51;12.30;99.90
29765;DHT22;16667;-33.884;151.182;2022-08-14T12:07:24;12.30;99.90
29765;DHT22;16667;-33.884;151.182;2022-08-14T12:09:55;12.30;99.90
29765;DHT22;16667;-33.884;151.182;2022-08-14T12:12:30;12.30;99.90
29765;DHT22;16667;-33.884;151.182;2022-08-14T12:15:02;12.30;99.90
29765;DHT22;16667;-33.884;151.182;2022-08-14T12:17:45;12.30;99.90
29765;DHT22;16667;-33.884;151.182;2022-08-14T12:20:18;12.30;99.90
29765;DHT22;16667;-33.884;151.182;2022-08-14T12:23:03;12.30;99.90
29765;DHT22;16667;-33.884;151.182;2022-08-14T12:25:35;12.30;99.90
29765;DHT22;16667;-33.884;151.182;2022-08-14T12:28:11;12.30;99.90
29765;DHT22;16667;-33.884;151.182;2022-08-14T12:30:44;12.30;99.90
29765;DHT22;16667;-33.884;151.182;2022-08-14T12:33:23;12.30;99.90
29765;DHT22;16667;-33.884;151.182;2022-08-14T12:35:55;12.30;99.90
29765;DHT22;16667;-33.884;151.182;2022-08-14T12:38:36;12.20;99.90
29765;DHT22;16667;-33.884;151.182;2022-08-14T12:41:12;12.20;99.90
29765;DHT22;16667;-33.884;151.182;2022-08-14T12:43:48;12.10;99.90
29765;DHT22;16667;-33.884;151.182;2022-08-14T12:46:25;12.10;99.90
29765;DHT22;16667;-33.884;151.182;2022-08-14T12:48:56;12.10;99.90
29765;DHT22;16667;-33.884;151.182;2022-08-14T12:51:28;12.10;99.90
29765;DHT22;16667;-33.884;151.182;2022-08-14T12:54:12;12.10;99.90
29765;DHT22;16667;-33.884;151.182;2022-08-14T12:56:43;12.10;99.90
29765;DHT22;16667;-33.884;151.182;2022-08-14T12:59:15;12.10;99.90
29765;DHT22;16667;-33.884;151.182;2022-08-14T13:01:47;12.00;99.90
29765;DHT22;16667;-33.884;151.182;2022-08-14T13:04:25;12.00;99.90
29765;DHT22;16667;-33.884;151.182;2022-08-14T13:07:02;12.00;99.90
29765;DHT22;16667;-33.884;151.182;2022-08-14T13:09:37;11.90;99.90
29765;DHT22;16667;-33.884;151.182;2022-08-14T13:12:08;11.90;99.90
29765;DHT22;16667;-33.884;151.182;2022-08-14T13:14:42;11.90;99.90
29765;DHT22;16667;-33.884;151.182;2022-08-14T13:17:17;11.80;99.90
29765;DHT22;16667;-33.884;151.182;2022-08-14T13:19:49;11.70;99.90
29765;DHT22;16667;-33.884;151.182;2022-08-14T13:22:23;11.70;99.90
29765;DHT22;16667;-33.884;151.182;2022-08-14T13:24:57;11.70;99.90
29765;DHT22;16667;-33.884;151.182;2022-08-14T13:27:29;11.70;99.90
29765;DHT22;16667;-33.884;151.182;2022-08-14T13:30:05;11.70;99.90
29765;DHT22;16667;-33.884;151.182;2022-08-14T13:32:37;11.70;99.90
29765;DHT22;16667;-33.884;151.182;2022-08-14T13:35:12;11.70;99.90
29765;DHT22;16667;-33.884;151.182;2022-08-14T13:37:43;11.70;99.90
29765;DHT22;16667;-33.884;151.182;2022-08-14T13:40:19;11.70;99.90
29765;DHT22;16667;-33.884;151.182;2022-08-14T13:42:50;11.60;99.90
29765;DHT22;16667;-33.884;151.182;2022-08-14T13:45:22;11.70;99.90
29765;DHT22;16667;-33.884;151.182;2022-08-14T13:47:53;11.60;99.90
29765;DHT22;16667;-33.884;151.182;2022-08-14T13:50:25;11.60;99.90
29765;DHT22;16667;-33.884;151.182;2022-08-14T13:52:57;11.60;99.90
29765;DHT22;16667;-33.884;151.182;2022-08-14T13:55:30;11.50;99.90
29765;DHT22;16667;-33.884;151.182;2022-08-14T13:58:02;11.50;99.90
29765;DHT22;16667;-33.884;151.182;2022-08-14T14:00:34;11.50;99.90
29765;DHT22;16667;-33.884;151.182;2022-08-14T14:03:06;11.40;99.90
29765;DHT22;16667;-33.884;151.182;2022-08-14T14:05:38;11.40;99.90
29765;DHT22;16667;-33.884;151.182;2022-08-14T14:08:11;11.40;99.90
29765;DHT22;16667;-33.884;151.182;2022-08-14T14:10:46;11.40;99.90
29765;DHT22;16667;-33.884;151.182;2022-08-14T14:13:16;11.40;99.90
29765;DHT22;16667;-33.884;151.182;2022-08-14T14:15:50;11.30;99.90
29765;DHT22;16667;-33.884;151.182;2022-08-14T14:18:23;11.30;99.90
29765;DHT22;16667;-33.884;151.182;2022-08-14T14:20:56;11.30;99.90
29765;DHT22;16667;-33.884;151.182;2022-08-14T14:23:27;11.30;99.90
29765;DHT22;16667;-33.884;151.182;2022-08-14T14:26:00;11.30;99.90
29765;DHT22;16667;-33.884;151.182;2022-08-14T14:28:32;11.30;99.90
29765;DHT22;16667;-33.884;151.182;2022-08-14T14:31:05;11.30;99.90
29765;DHT22;16667;-33.884;151.182;2022-08-14T14:33:42;11.30;99.90
29765;DHT22;16667;-33.884;151.182;2022-08-14T14:36:18;11.30;99.90
29765;DHT22;16667;-33.884;151.182;2022-08-14T14:38:52;11.30;99.90
29765;DHT22;16667;-33.884;151.182;2022-08-14T14:41:26;11.30;99.90
29765;DHT22;16667;-33.884;151.182;2022-08-14T14:43:58;11.30;99.90
29765;DHT22;16667;-33.884;151.182;2022-08-14T14:46:32;11.30;99.90
29765;DHT22;16667;-33.884;151.182;2022-08-14T14:49:06;11.30;99.90
29765;DHT22;16667;-33.884;151.182;2022-08-14T14:51:42;11.30;99.90
29765;DHT22;16667;-33.884;151.182;2022-08-14T14:54:13;11.40;99.90
29765;DHT22;16667;-33.884;151.182;2022-08-14T14:56:48;11.40;99.90
29765;DHT22;16667;-33.884;151.182;2022-08-14T14:59:20;11.40;99.90
29765;DHT22;16667;-33.884;151.182;2022-08-14T15:01:51;11.30;99.90
29765;DHT22;16667;-33.884;151.182;2022-08-14T15:04:23;11.30;99.90
29765;DHT22;16667;-33.884;151.182;2022-08-14T15:06:54;11.30;99.90
29765;DHT22;16667;-33.884;151.182;2022-08-14T15:09:24;11.30;99.90
29765;DHT22;16667;-33.884;151.182;2022-08-14T15:12:00;11.30;99.90
29765;DHT22;16667;-33.884;151.182;2022-08-14T15:14:31;11.20;99.90
29765;DHT22;16667;-33.884;151.182;2022-08-14T15:17:02;11.20;99.90
29765;DHT22;16667;-33.884;151.182;2022-08-14T15:19:34;11.20;99.90
29765;DHT22;16667;-33.884;151.182;2022-08-14T15:22:05;11.20;99.90
29765;DHT22;16667;-33.884;151.182;2022-08-14T15:24:36;11.20;99.90
29765;DHT22;16667;-33.884;151.182;2022-08-14T15:27:10;11.20;99.90